Terminal Aerodrome Forecast
Issued by NWS

Home | Current Version | Previous Version | Text Only | Print | Product List | Glossary Off
Versions: 1 2 3 4 5 6 7 8 9 10 11 12 13 14 15 16

000
FTUS43 KUNR 301720
TAFGCC
TAF
KGCC 301720Z 3018/3118 33015G23KT P6SM VCTS BKN060CB
     FM302300 34016G25KT 6SM -SHRA OVC060
     FM310200 30011KT P6SM BKN100
     FM310600 27009KT P6SM SCT150=

USA.gov is the U.S. government's official web portal to all federal, state and local government web resources and services.